createdAt,value
2023-04-09T00:00:39.102Z,7.74
2023-04-09T00:01:41.597Z,7.75
2023-04-09T00:02:44.006Z,7.69
2023-04-09T00:03:46.440Z,7.71
2023-04-09T00:04:48.722Z,7.78
2023-04-09T00:05:51.584Z,7.80
2023-04-09T00:06:53.768Z,7.74
2023-04-09T00:07:56.302Z,7.83
2023-04-09T00:08:58.520Z,7.72
2023-04-09T00:10:00.797Z,7.67
2023-04-09T00:11:03.125Z,7.56
2023-04-09T00:12:05.685Z,7.64
2023-04-09T00:13:07.917Z,7.65
2023-04-09T00:14:10.118Z,7.57
2023-04-09T00:15:20.687Z,7.63
2023-04-09T00:16:30.468Z,7.56
2023-04-09T00:17:32.730Z,7.58
2023-04-09T00:18:35.145Z,7.58
2023-04-09T00:19:37.395Z,7.57
2023-04-09T00:20:39.627Z,7.57
2023-04-09T00:21:42.917Z,7.56
2023-04-09T00:22:45.264Z,7.53
2023-04-09T00:23:47.524Z,7.52
2023-04-09T00:24:49.740Z,7.53
2023-04-09T00:25:51.927Z,7.49
2023-04-09T00:26:54.089Z,7.51
2023-04-09T00:27:56.784Z,7.51
2023-04-09T00:28:58.999Z,7.47
2023-04-09T00:30:01.214Z,7.49
2023-04-09T00:31:03.736Z,7.50
2023-04-09T00:32:06.156Z,7.51
2023-04-09T00:33:08.469Z,7.55
2023-04-09T00:34:10.801Z,7.56
2023-04-09T00:35:13.178Z,7.49
2023-04-09T00:36:15.483Z,7.43
2023-04-09T00:37:17.767Z,7.44
2023-04-09T00:38:20.359Z,7.40
2023-04-09T00:39:22.655Z,7.43
2023-04-09T00:40:24.958Z,7.40
2023-04-09T00:41:27.165Z,7.42
2023-04-09T00:42:33.350Z,7.45
2023-04-09T00:43:35.577Z,7.39
2023-04-09T00:44:38.563Z,7.49
2023-04-09T00:45:41.359Z,7.51
2023-04-09T00:46:43.601Z,7.42
2023-04-09T00:47:46.771Z,7.42
2023-04-09T00:48:49.463Z,7.45
2023-04-09T00:49:51.756Z,7.46
2023-04-09T00:50:53.932Z,7.46
2023-04-09T00:51:56.694Z,7.46
2023-04-09T00:52:59.212Z,7.53
2023-04-09T00:54:01.529Z,7.56
2023-04-09T00:55:05.870Z,7.59
2023-04-09T00:56:08.522Z,7.60
2023-04-09T00:57:12.238Z,7.56
2023-04-09T00:58:14.620Z,7.56
2023-04-09T00:59:16.867Z,7.59
2023-04-09T01:00:19.269Z,7.65
2023-04-09T01:01:21.504Z,7.60
2023-04-09T01:02:23.849Z,7.58
2023-04-09T01:03:26.299Z,7.54
2023-04-09T01:04:28.612Z,7.53
2023-04-09T01:05:52.526Z,7.49
2023-04-09T01:07:25.776Z,7.47
2023-04-09T01:08:34.077Z,7.40
2023-04-09T01:10:00.361Z,7.33
2023-04-09T01:11:16.058Z,7.34
2023-04-09T01:12:27.367Z,7.31
2023-04-09T01:13:58.707Z,7.37
2023-04-09T01:15:10.863Z,7.29
2023-04-09T01:16:16.667Z,7.23
2023-04-09T01:17:24.346Z,7.21
2023-04-09T01:18:32.865Z,7.22
2023-04-09T01:19:49.330Z,7.21
2023-04-09T01:21:06.009Z,7.31
2023-04-09T01:22:31.101Z,7.23
2023-04-09T01:23:56.448Z,7.23
2023-04-09T01:25:19.444Z,7.21
2023-04-09T01:26:57.133Z,7.32
2023-04-09T01:28:26.987Z,7.24
2023-04-09T01:29:41.741Z,7.23
2023-04-09T01:30:48.377Z,7.29
2023-04-09T01:31:51.758Z,7.25
2023-04-09T01:32:55.586Z,7.28
2023-04-09T01:34:00.151Z,7.27
2023-04-09T01:35:03.757Z,7.26
2023-04-09T01:36:07.372Z,7.36
2023-04-09T01:37:10.028Z,7.30
2023-04-09T01:38:14.298Z,7.25
2023-04-09T01:39:16.655Z,7.21
2023-04-09T01:40:19.221Z,7.19
2023-04-09T01:41:23.427Z,7.16
2023-04-09T01:42:26.179Z,7.17
2023-04-09T01:43:28.700Z,7.15
2023-04-09T01:44:32.499Z,7.09
2023-04-09T01:45:34.967Z,7.11
2023-04-09T01:46:39.207Z,7.12
2023-04-09T01:47:41.730Z,7.14
2023-04-09T01:48:44.928Z,7.11
2023-04-09T01:49:47.202Z,7.07
2023-04-09T01:50:50.374Z,7.07
2023-04-09T01:51:52.703Z,7.09
2023-04-09T01:52:55.194Z,7.07
2023-04-09T01:53:57.612Z,7.12
2023-04-09T01:54:59.783Z,7.09
2023-04-09T01:56:02.118Z,7.14
2023-04-09T01:57:04.522Z,7.15
2023-04-09T01:58:06.721Z,7.13
2023-04-09T01:59:09.010Z,7.12
2023-04-09T02:02:16.685Z,7.00
2023-04-09T02:03:27.482Z,6.98
2023-04-09T02:04:32.214Z,6.97
2023-04-09T02:05:38.644Z,6.94
2023-04-09T02:06:55.594Z,6.97
2023-04-09T02:08:01.812Z,6.94
2023-04-09T02:09:07.856Z,6.95
2023-04-09T02:10:12.827Z,6.91
2023-04-09T02:11:16.406Z,6.89
2023-04-09T02:12:19.584Z,6.87
2023-04-09T02:13:23.410Z,6.88
2023-04-09T02:14:27.512Z,6.89
2023-04-09T02:15:32.015Z,6.87
2023-04-09T02:16:34.780Z,6.84
2023-04-09T02:17:37.109Z,6.86
2023-04-09T02:18:39.304Z,6.87
2023-04-09T02:19:43.218Z,6.79
2023-04-09T02:20:45.398Z,6.84
2023-04-09T02:21:48.229Z,6.78
2023-04-09T02:22:50.468Z,6.81
2023-04-09T02:23:52.791Z,6.75
2023-04-09T02:24:55.189Z,6.83
2023-04-09T02:25:57.414Z,6.80
2023-04-09T02:26:59.570Z,6.83
2023-04-09T02:28:01.825Z,6.83
2023-04-09T02:29:04.083Z,6.76
2023-04-09T02:30:07.075Z,6.83
2023-04-09T02:31:09.330Z,6.84
2023-04-09T02:32:11.647Z,6.85
2023-04-09T02:33:13.884Z,6.80
2023-04-09T02:34:16.196Z,6.91
2023-04-09T02:35:18.787Z,6.92
2023-04-09T02:36:21.245Z,7.01
2023-04-09T02:37:23.563Z,7.04
2023-04-09T02:38:25.843Z,7.05
2023-04-09T02:39:28.085Z,6.99
2023-04-09T02:40:30.431Z,6.90
2023-04-09T02:41:33.632Z,6.85
2023-04-09T02:42:35.962Z,6.91
2023-04-09T02:43:38.127Z,6.85
2023-04-09T02:44:40.356Z,6.84
2023-04-09T02:45:42.577Z,6.76
2023-04-09T02:46:46.029Z,6.70
2023-04-09T02:47:48.778Z,6.68
2023-04-09T02:48:51.263Z,6.79
2023-04-09T02:49:54.207Z,6.84
2023-04-09T02:50:57.090Z,6.85
2023-04-09T02:51:59.291Z,6.84
2023-04-09T02:53:01.490Z,6.88
2023-04-09T02:54:04.286Z,7.03
2023-04-09T02:55:07.213Z,7.09
2023-04-09T02:56:09.362Z,7.03
2023-04-09T02:57:11.557Z,6.88
2023-04-09T02:58:13.700Z,6.84
2023-04-09T02:59:16.197Z,6.77
2023-04-09T03:00:18.567Z,6.72
2023-04-09T03:01:21.143Z,6.67
2023-04-09T03:02:23.593Z,6.62
2023-04-09T03:03:26.298Z,6.65
2023-04-09T03:04:28.554Z,6.58
2023-04-09T03:05:30.681Z,6.56
2023-04-09T03:06:32.870Z,6.51
2023-04-09T03:07:35.086Z,6.44
2023-04-09T03:08:37.292Z,6.49
2023-04-09T03:09:39.976Z,6.47
2023-04-09T03:10:42.305Z,6.42
2023-04-09T03:11:44.468Z,6.40
2023-04-09T03:12:47.829Z,6.35
2023-04-09T03:13:50.153Z,6.35
2023-04-09T03:14:52.311Z,6.33
2023-04-09T03:15:54.649Z,6.37
2023-04-09T03:16:56.807Z,6.37
2023-04-09T03:17:58.989Z,6.37
2023-04-09T03:19:01.436Z,6.31
2023-04-09T03:20:03.991Z,6.44
2023-04-09T03:21:13.737Z,6.42
2023-04-09T03:22:21.730Z,6.44
2023-04-09T03:23:27.502Z,6.44
2023-04-09T03:24:31.276Z,6.53
2023-04-09T03:25:36.914Z,6.43
2023-04-09T03:26:47.093Z,6.44
2023-04-09T03:27:50.821Z,6.45
2023-04-09T03:29:00.491Z,6.48
2023-04-09T03:30:03.282Z,6.48
2023-04-09T03:31:14.139Z,6.39
2023-04-09T03:32:19.085Z,6.40
2023-04-09T03:33:21.459Z,6.39
2023-04-09T03:34:29.864Z,6.29
2023-04-09T03:35:33.255Z,6.18
2023-04-09T03:36:36.279Z,6.17
2023-04-09T03:37:40.535Z,6.10
2023-04-09T03:38:49.596Z,6.08
2023-04-09T03:40:01.367Z,6.05
2023-04-09T03:41:05.707Z,6.05
2023-04-09T03:42:08.912Z,6.12
2023-04-09T03:43:19.316Z,6.12
2023-04-09T03:44:26.391Z,6.08
2023-04-09T03:45:36.115Z,6.02
2023-04-09T03:46:51.424Z,6.09
2023-04-09T03:47:56.746Z,6.04
2023-04-09T03:49:00.552Z,6.00
2023-04-09T03:50:11.392Z,6.07
2023-04-09T03:51:27.109Z,6.02
2023-04-09T03:52:32.472Z,5.97
2023-04-09T03:53:40.868Z,6.00
2023-04-09T03:54:43.530Z,6.02
2023-04-09T03:55:51.573Z,5.92
2023-04-09T03:56:59.105Z,5.97
2023-04-09T03:58:01.445Z,5.88
2023-04-09T03:59:07.215Z,6.01
2023-04-09T04:00:15.438Z,6.03
2023-04-09T04:01:26.533Z,5.95
2023-04-09T04:02:33.947Z,5.92
2023-04-09T04:03:39.729Z,5.92
2023-04-09T04:04:47.493Z,5.90
2023-04-09T04:05:50.212Z,5.83
2023-04-09T04:06:53.115Z,5.83
2023-04-09T04:08:00.492Z,5.80
2023-04-09T04:09:05.093Z,5.75
2023-04-09T04:10:19.881Z,5.72
2023-04-09T04:11:22.715Z,5.68
2023-04-09T04:12:28.258Z,5.63
2023-04-09T04:13:40.903Z,5.54
2023-04-09T04:14:44.928Z,5.44
2023-04-09T04:16:07.235Z,5.50
2023-04-09T04:17:10.784Z,5.51
2023-04-09T04:18:13.230Z,5.59
2023-04-09T04:19:22.531Z,5.48
2023-04-09T04:20:26.955Z,5.50
2023-04-09T04:21:35.930Z,5.42
2023-04-09T04:22:38.476Z,5.44
2023-04-09T04:23:40.928Z,5.42
2023-04-09T04:24:59.886Z,5.29
2023-04-09T04:26:02.206Z,5.42
2023-04-09T04:27:09.027Z,5.31
2023-04-09T04:28:11.821Z,5.28
2023-04-09T04:29:17.242Z,5.29
2023-04-09T04:30:26.108Z,5.27
2023-04-09T04:31:34.601Z,5.19
2023-04-09T04:32:37.386Z,5.18
2023-04-09T04:33:44.042Z,5.17
2023-04-09T04:34:50.221Z,5.19
2023-04-09T04:36:07.931Z,5.27
2023-04-09T04:37:36.422Z,5.18
2023-04-09T04:38:39.570Z,5.14
2023-04-09T04:39:47.677Z,5.26
2023-04-09T04:40:51.863Z,5.32
2023-04-09T04:41:54.559Z,5.40
2023-04-09T04:43:00.781Z,5.45
2023-04-09T04:44:03.679Z,5.47
2023-04-09T04:45:06.375Z,5.37
2023-04-09T04:46:21.877Z,5.28
2023-04-09T04:47:24.326Z,5.31
2023-04-09T04:48:28.515Z,5.23
2023-04-09T04:49:31.676Z,5.27
2023-04-09T04:50:35.634Z,5.40
2023-04-09T04:51:42.402Z,5.34
2023-04-09T04:52:47.812Z,5.37
2023-04-09T04:53:50.252Z,5.41
2023-04-09T04:54:52.439Z,5.16
2023-04-09T04:55:58.226Z,5.08
2023-04-09T04:57:02.664Z,5.07
2023-04-09T04:58:16.519Z,5.14
2023-04-09T04:59:23.731Z,5.08
2023-04-09T05:00:34.122Z,5.11
2023-04-09T05:01:38.326Z,4.96
2023-04-09T05:02:45.369Z,5.02
2023-04-09T05:04:11.800Z,5.00
2023-04-09T05:05:14.585Z,4.92
2023-04-09T05:06:23.054Z,4.92
2023-04-09T05:07:25.857Z,4.89
2023-04-09T05:08:30.864Z,4.95
2023-04-09T05:09:34.009Z,4.91
2023-04-09T05:10:43.835Z,4.88
2023-04-09T05:11:46.559Z,4.97
2023-04-09T05:12:54.023Z,5.01
2023-04-09T05:14:04.921Z,5.10
2023-04-09T05:15:08.111Z,5.04
2023-04-09T05:16:19.701Z,5.04
2023-04-09T05:17:28.602Z,5.09
2023-04-09T05:18:31.020Z,5.25
2023-04-09T05:19:33.331Z,5.30
2023-04-09T05:20:38.412Z,5.28
2023-04-09T05:21:46.742Z,5.40
2023-04-09T05:22:52.099Z,5.39
2023-04-09T05:24:00.511Z,5.44
2023-04-09T05:25:06.239Z,5.37
2023-04-09T05:26:12.750Z,5.52
2023-04-09T05:27:27.560Z,5.72
2023-04-09T05:28:35.019Z,5.91
2023-04-09T05:29:49.450Z,5.91
2023-04-09T05:30:52.642Z,6.00
2023-04-09T05:31:55.036Z,6.15
2023-04-09T05:33:07.908Z,6.30
2023-04-09T05:34:10.540Z,6.35
2023-04-09T05:35:17.351Z,6.51
2023-04-09T05:36:20.587Z,6.58
2023-04-09T05:37:22.925Z,6.45
2023-04-09T05:38:27.549Z,6.46
2023-04-09T05:39:33.174Z,6.40
2023-04-09T05:40:37.150Z,6.52
2023-04-09T05:41:46.573Z,6.66
2023-04-09T05:43:12.862Z,6.98
2023-04-09T05:44:18.931Z,7.07
2023-04-09T05:45:21.425Z,7.05
2023-04-09T05:46:27.412Z,7.25
2023-04-09T05:47:30.442Z,7.37
2023-04-09T05:48:40.099Z,7.68
2023-04-09T05:49:42.331Z,7.94
2023-04-09T05:50:55.655Z,8.64
2023-04-09T05:52:00.755Z,10.04
2023-04-09T05:53:06.756Z,10.87
2023-04-09T05:54:14.686Z,11.12
2023-04-09T05:55:17.094Z,11.02
2023-04-09T05:56:25.709Z,11.87
2023-04-09T05:57:32.172Z,12.22
2023-04-09T05:58:38.165Z,11.38
2023-04-09T05:59:40.379Z,10.03
2023-04-09T06:00:42.640Z,9.49
2023-04-09T06:01:44.904Z,9.12
2023-04-09T06:02:47.202Z,8.64
2023-04-09T06:03:49.764Z,8.38
2023-04-09T06:04:52.334Z,8.39
2023-04-09T06:05:54.711Z,8.16
2023-04-09T06:07:00.006Z,8.27
2023-04-09T06:08:02.259Z,8.78
2023-04-09T06:09:04.637Z,8.80
2023-04-09T06:10:07.587Z,9.15
2023-04-09T06:11:10.472Z,9.57
2023-04-09T06:12:13.483Z,9.22
2023-04-09T06:13:15.916Z,9.19
2023-04-09T06:14:18.324Z,8.79
2023-04-09T06:15:20.627Z,8.59
2023-04-09T06:16:23.073Z,8.72
2023-04-09T06:17:26.791Z,8.81
2023-04-09T06:18:29.009Z,8.84
2023-04-09T06:19:31.480Z,9.18
2023-04-09T06:20:33.784Z,9.18
2023-04-09T06:21:36.203Z,9.20
2023-04-09T06:22:38.464Z,9.00
2023-04-09T06:23:40.993Z,8.97
2023-04-09T06:24:43.172Z,9.20
2023-04-09T06:25:45.440Z,10.10
2023-04-09T06:26:47.868Z,9.57
2023-04-09T06:27:50.462Z,9.31
2023-04-09T06:28:52.612Z,9.28
2023-04-09T06:29:55.025Z,9.71
2023-04-09T06:30:58.030Z,9.65
2023-04-09T06:32:00.544Z,9.42
2023-04-09T06:33:02.724Z,9.76
2023-04-09T06:34:04.988Z,9.91
2023-04-09T06:35:10.403Z,9.58
2023-04-09T06:36:13.155Z,10.01
2023-04-09T06:37:15.780Z,10.28
2023-04-09T06:38:18.234Z,10.20
2023-04-09T06:39:20.593Z,9.93
2023-04-09T06:40:23.432Z,9.73
2023-04-09T06:41:26.545Z,9.67
2023-04-09T06:42:28.784Z,9.15
2023-04-09T06:43:38.785Z,9.11
2023-04-09T06:44:40.914Z,9.15
2023-04-09T06:45:43.165Z,8.76
2023-04-09T06:46:45.570Z,8.70
2023-04-09T06:47:48.287Z,8.76
2023-04-09T06:48:50.658Z,8.77
2023-04-09T06:49:52.891Z,8.85
2023-04-09T06:50:55.225Z,8.72
2023-04-09T06:51:57.739Z,8.32
2023-04-09T06:53:00.171Z,8.46
2023-04-09T06:54:02.473Z,8.70
2023-04-09T06:55:05.052Z,8.80
2023-04-09T06:56:07.401Z,8.88
2023-04-09T06:57:09.580Z,8.95
2023-04-09T06:58:11.765Z,8.90
2023-04-09T06:59:14.235Z,8.53
2023-04-09T07:00:16.549Z,8.70
2023-04-09T07:01:19.510Z,8.81
2023-04-09T07:02:21.998Z,8.63
2023-04-09T07:03:24.798Z,8.63
2023-04-09T07:04:27.261Z,8.75
2023-04-09T07:05:30.572Z,8.68
2023-04-09T07:06:32.805Z,8.45
2023-04-09T07:07:34.973Z,8.31
2023-04-09T07:08:37.174Z,8.21
2023-04-09T07:09:39.482Z,8.53
2023-04-09T07:10:41.788Z,8.46
2023-04-09T07:11:44.169Z,8.20
2023-04-09T07:12:46.481Z,8.19
2023-04-09T07:13:48.714Z,8.00
2023-04-09T07:14:51.029Z,8.00
2023-04-09T07:15:53.342Z,8.31
2023-04-09T07:16:55.810Z,8.34
2023-04-09T07:17:58.053Z,8.09
2023-04-09T07:19:00.300Z,8.17
2023-04-09T07:20:02.532Z,8.27
2023-04-09T07:21:05.207Z,8.62
2023-04-09T07:22:07.443Z,8.48
2023-04-09T07:23:09.599Z,8.68
2023-04-09T07:24:11.819Z,9.02
2023-04-09T07:25:15.518Z,8.93
2023-04-09T07:26:17.748Z,9.13
2023-04-09T07:27:21.203Z,8.93
2023-04-09T07:28:23.361Z,8.74
2023-04-09T07:29:25.520Z,8.91
2023-04-09T07:30:27.881Z,9.15
2023-04-09T07:31:30.184Z,9.58
2023-04-09T07:32:32.599Z,10.13
2023-04-09T07:33:34.944Z,9.61
2023-04-09T07:34:37.549Z,9.49
2023-04-09T07:35:39.829Z,9.62
2023-04-09T07:36:42.928Z,9.85
2023-04-09T07:37:45.338Z,10.18
2023-04-09T07:38:47.637Z,10.25
2023-04-09T07:39:51.276Z,10.45
2023-04-09T07:40:53.466Z,10.28
2023-04-09T07:41:57.404Z,10.21
2023-04-09T07:42:59.667Z,10.56
2023-04-09T07:44:03.860Z,11.10
2023-04-09T07:45:06.819Z,11.54
2023-04-09T07:46:09.016Z,12.01
2023-04-09T07:47:12.815Z,12.11
2023-04-09T07:48:15.026Z,11.85
2023-04-09T07:49:17.498Z,11.38
2023-04-09T07:50:19.971Z,11.07
2023-04-09T07:51:22.197Z,10.62
2023-04-09T07:52:24.598Z,10.41
2023-04-09T07:53:26.913Z,11.01
2023-04-09T07:54:30.064Z,10.62
2023-04-09T07:55:32.210Z,11.00
2023-04-09T07:56:34.472Z,10.70
2023-04-09T07:57:36.911Z,10.37
2023-04-09T07:58:39.155Z,10.88
2023-04-09T07:59:41.748Z,10.58
2023-04-09T08:00:44.043Z,10.99
2023-04-09T08:01:46.520Z,11.17
2023-04-09T08:02:49.079Z,11.33
2023-04-09T08:03:51.656Z,11.63
2023-04-09T08:04:54.093Z,11.16
2023-04-09T08:05:56.369Z,11.25
2023-04-09T08:06:58.569Z,11.50
2023-04-09T08:08:00.926Z,11.28
2023-04-09T08:09:03.135Z,11.55
2023-04-09T08:10:06.745Z,11.69
2023-04-09T08:11:08.968Z,11.58
2023-04-09T08:12:11.519Z,11.21
2023-04-09T08:13:13.726Z,11.03
2023-04-09T08:14:17.568Z,10.95
2023-04-09T08:15:20.091Z,11.56
2023-04-09T08:16:24.437Z,11.90
2023-04-09T08:17:27.300Z,12.09
2023-04-09T08:18:29.735Z,11.60
2023-04-09T08:19:31.938Z,11.31
2023-04-09T08:20:34.172Z,11.24
2023-04-09T08:21:43.032Z,11.59
2023-04-09T08:22:45.347Z,12.05
2023-04-09T08:23:47.750Z,11.75
2023-04-09T08:24:53.612Z,11.59
2023-04-09T08:25:55.815Z,12.13
2023-04-09T08:26:58.462Z,12.45
2023-04-09T08:28:00.701Z,12.54
2023-04-09T08:29:02.937Z,12.83
2023-04-09T08:30:05.587Z,12.48
2023-04-09T08:31:09.448Z,12.53
2023-04-09T08:32:12.603Z,12.33
2023-04-09T08:33:14.981Z,12.43
2023-04-09T08:34:20.916Z,12.14
2023-04-09T08:35:23.403Z,11.98
2023-04-09T08:36:26.297Z,11.63
2023-04-09T08:37:29.590Z,11.31
2023-04-09T08:38:31.870Z,11.39
2023-04-09T08:39:34.301Z,11.34
2023-04-09T08:40:37.306Z,10.92
2023-04-09T08:41:44.094Z,10.81
2023-04-09T08:42:53.174Z,10.86
2023-04-09T08:43:58.873Z,10.61
2023-04-09T08:45:04.771Z,10.53
2023-04-09T08:46:07.137Z,10.41
2023-04-09T08:47:12.538Z,10.56
2023-04-09T08:48:15.979Z,10.56
2023-04-09T08:49:18.454Z,10.51
2023-04-09T08:50:20.857Z,10.58
2023-04-09T08:51:24.392Z,10.77
2023-04-09T08:52:33.603Z,10.60
2023-04-09T08:53:36.369Z,10.65
2023-04-09T08:54:38.711Z,10.75
2023-04-09T08:55:48.777Z,10.69
2023-04-09T08:56:51.935Z,10.67
2023-04-09T08:57:54.484Z,10.79
2023-04-09T08:58:56.926Z,10.88
2023-04-09T08:59:59.437Z,10.74
2023-04-09T09:01:02.275Z,10.93
2023-04-09T09:02:09.496Z,10.93
2023-04-09T09:03:15.485Z,10.78
2023-04-09T09:04:17.769Z,10.84
2023-04-09T09:05:39.029Z,10.52
2023-04-09T09:06:41.732Z,10.52
2023-04-09T09:07:54.514Z,10.48
2023-04-09T09:09:06.753Z,10.65
2023-04-09T09:10:09.092Z,10.82
2023-04-09T09:11:11.401Z,11.33
2023-04-09T09:12:36.941Z,10.94
2023-04-09T09:13:39.150Z,11.11
2023-04-09T09:14:41.426Z,11.38
2023-04-09T09:15:44.330Z,11.46
2023-04-09T09:16:55.457Z,11.56
2023-04-09T09:18:00.535Z,11.35
2023-04-09T09:19:03.007Z,11.74
2023-04-09T09:20:20.803Z,11.22
2023-04-09T09:21:23.606Z,11.32
2023-04-09T09:22:26.067Z,11.37
2023-04-09T09:23:37.376Z,11.05
2023-04-09T09:24:49.784Z,11.10
2023-04-09T09:25:52.747Z,11.04
2023-04-09T09:26:55.694Z,11.07
2023-04-09T09:28:08.320Z,11.30
2023-04-09T09:29:10.451Z,11.36
2023-04-09T09:30:21.881Z,11.38
2023-04-09T09:31:24.584Z,11.34
2023-04-09T09:32:27.885Z,11.49
2023-04-09T09:33:33.545Z,11.67
2023-04-09T09:34:35.739Z,12.57
2023-04-09T09:35:52.046Z,12.79
2023-04-09T09:36:54.438Z,12.74
2023-04-09T09:38:06.519Z,12.40
2023-04-09T09:39:13.011Z,12.14
2023-04-09T09:40:28.444Z,12.39
2023-04-09T09:41:31.468Z,12.52
2023-04-09T09:42:33.724Z,12.19
2023-04-09T09:43:42.101Z,12.47
2023-04-09T09:44:44.400Z,12.35
2023-04-09T09:45:48.291Z,12.94
2023-04-09T09:46:50.781Z,13.22
2023-04-09T09:47:54.055Z,13.27
2023-04-09T09:48:56.491Z,13.01
2023-04-09T09:49:58.689Z,12.51
2023-04-09T09:51:07.869Z,12.19
2023-04-09T09:52:10.976Z,12.46
2023-04-09T09:53:17.593Z,12.27
2023-04-09T09:54:22.624Z,12.33
2023-04-09T09:55:29.845Z,12.47
2023-04-09T09:56:37.972Z,12.06
2023-04-09T09:57:44.086Z,12.65
2023-04-09T09:58:56.085Z,13.06
2023-04-09T10:00:03.624Z,13.33
2023-04-09T10:01:14.182Z,13.03
2023-04-09T10:02:21.723Z,12.49
2023-04-09T10:03:34.353Z,12.32
2023-04-09T10:04:36.694Z,12.21
2023-04-09T10:05:40.801Z,12.23
2023-04-09T10:06:47.061Z,11.96
2023-04-09T10:07:49.538Z,11.84
2023-04-09T10:08:53.339Z,11.79
2023-04-09T10:09:56.841Z,11.94
2023-04-09T10:10:59.626Z,11.81
2023-04-09T10:12:04.885Z,11.90
2023-04-09T10:13:07.587Z,11.71
2023-04-09T10:14:09.809Z,11.88
2023-04-09T10:15:12.078Z,11.92
2023-04-09T10:16:15.309Z,12.03
2023-04-09T10:17:17.815Z,11.59
2023-04-09T10:18:20.071Z,11.66
2023-04-09T10:19:22.343Z,11.74
2023-04-09T10:20:32.579Z,11.92
2023-04-09T10:21:43.657Z,11.92
2023-04-09T10:22:50.324Z,11.80
2023-04-09T10:23:53.529Z,11.92
2023-04-09T10:24:55.924Z,11.84
2023-04-09T10:25:58.557Z,11.86
2023-04-09T10:27:12.064Z,12.07
2023-04-09T10:28:17.564Z,12.36
2023-04-09T10:29:27.859Z,12.12
2023-04-09T10:30:37.227Z,12.14
2023-04-09T10:31:51.512Z,12.30
2023-04-09T10:32:54.065Z,12.22
2023-04-09T10:34:04.281Z,12.09
2023-04-09T10:35:09.248Z,12.18
2023-04-09T10:36:12.946Z,11.89
2023-04-09T10:37:17.118Z,12.15
2023-04-09T10:38:40.883Z,12.27
2023-04-09T10:39:47.713Z,12.17
2023-04-09T10:40:53.316Z,12.46
2023-04-09T10:41:57.199Z,12.35
2023-04-09T10:42:59.661Z,12.25
2023-04-09T10:44:06.397Z,12.07
2023-04-09T10:45:14.079Z,12.27
2023-04-09T10:46:46.007Z,12.28
2023-04-09T10:47:51.349Z,12.16
2023-04-09T10:49:19.921Z,12.10
2023-04-09T10:50:26.486Z,12.36
2023-04-09T10:51:28.796Z,12.34
2023-04-09T10:52:31.231Z,12.34
2023-04-09T10:53:33.652Z,12.11
2023-04-09T10:54:36.133Z,12.21
2023-04-09T10:55:42.346Z,12.05
2023-04-09T10:57:07.504Z,12.23
2023-04-09T10:58:13.673Z,12.28
2023-04-09T10:59:16.344Z,12.82
2023-04-09T11:00:18.764Z,12.80
2023-04-09T11:01:22.365Z,12.70
2023-04-09T11:02:39.808Z,13.04
2023-04-09T11:03:45.966Z,13.32
2023-04-09T11:05:13.594Z,13.13
2023-04-09T11:06:20.324Z,12.85
2023-04-09T11:07:25.090Z,12.73
2023-04-09T11:08:32.290Z,12.89
2023-04-09T11:09:35.534Z,13.14
2023-04-09T11:10:39.254Z,12.79
2023-04-09T11:11:41.618Z,12.61
2023-04-09T11:12:43.916Z,12.74
2023-04-09T11:13:46.311Z,12.50
2023-04-09T11:14:48.464Z,12.84
2023-04-09T11:15:50.861Z,13.36
2023-04-09T11:16:53.749Z,13.29
2023-04-09T11:17:57.560Z,13.24
2023-04-09T11:18:59.861Z,13.21
2023-04-09T11:20:03.451Z,13.11
2023-04-09T11:21:06.199Z,13.19
2023-04-09T11:22:08.460Z,13.43
2023-04-09T11:23:11.963Z,12.91
2023-04-09T11:24:14.671Z,13.32
2023-04-09T11:25:24.788Z,12.88
2023-04-09T11:26:36.548Z,12.69
2023-04-09T11:27:39.100Z,12.91
2023-04-09T11:28:43.186Z,12.77
2023-04-09T11:29:45.445Z,12.72
2023-04-09T11:30:50.078Z,12.91
2023-04-09T11:31:52.269Z,13.14
2023-04-09T11:32:54.966Z,13.00
2023-04-09T11:33:57.220Z,13.00
2023-04-09T11:34:59.503Z,13.19
2023-04-09T11:36:04.931Z,13.05
2023-04-09T11:37:09.276Z,13.15
2023-04-09T11:38:12.073Z,12.78
2023-04-09T11:39:14.536Z,12.87
2023-04-09T11:40:21.544Z,12.96
2023-04-09T11:41:36.770Z,12.59
2023-04-09T11:42:38.918Z,12.54
2023-04-09T11:43:41.149Z,12.71
2023-04-09T11:44:46.752Z,12.70
2023-04-09T11:45:49.462Z,12.60
2023-04-09T11:46:51.913Z,12.85
2023-04-09T11:47:54.861Z,14.01
2023-04-09T11:48:58.512Z,14.47
2023-04-09T11:50:00.888Z,13.84
2023-04-09T11:51:03.924Z,13.75
2023-04-09T11:52:06.450Z,13.43
2023-04-09T11:53:22.275Z,13.19
2023-04-09T11:54:24.469Z,12.86
2023-04-09T11:55:28.803Z,12.80
2023-04-09T11:56:31.445Z,12.91
2023-04-09T11:57:57.406Z,13.68
2023-04-09T11:58:59.615Z,13.68
2023-04-09T12:00:07.228Z,13.69
2023-04-09T12:01:10.848Z,13.91
2023-04-09T12:02:18.419Z,13.84
2023-04-09T12:03:29.329Z,14.52
2023-04-09T12:04:31.918Z,14.54
2023-04-09T12:05:35.168Z,15.02
2023-04-09T12:06:40.652Z,15.41
2023-04-09T12:07:55.553Z,14.18
2023-04-09T12:08:59.472Z,13.73
2023-04-09T12:10:10.325Z,13.67
2023-04-09T12:11:14.833Z,13.40
2023-04-09T12:12:20.728Z,13.59
2023-04-09T12:13:32.554Z,13.17
2023-04-09T12:14:35.047Z,13.10
2023-04-09T12:15:41.118Z,13.28
2023-04-09T12:16:45.356Z,13.24
2023-04-09T12:17:53.501Z,12.94
2023-04-09T12:18:56.060Z,12.88
2023-04-09T12:19:58.306Z,12.55
2023-04-09T12:21:02.489Z,12.71
2023-04-09T12:22:04.756Z,12.88
2023-04-09T12:23:08.249Z,12.93
2023-04-09T12:24:10.721Z,13.07
2023-04-09T12:25:12.880Z,12.92
2023-04-09T12:26:15.735Z,13.58
2023-04-09T12:27:17.927Z,13.90
2023-04-09T12:28:20.253Z,13.97
2023-04-09T12:29:22.644Z,14.36
2023-04-09T12:30:25.648Z,14.16
2023-04-09T12:31:27.895Z,13.97
2023-04-09T12:32:30.153Z,13.90
2023-04-09T12:33:32.531Z,13.84
2023-04-09T12:34:34.717Z,13.82
2023-04-09T12:35:37.866Z,13.62
2023-04-09T12:36:43.629Z,13.41
2023-04-09T12:37:46.446Z,13.26
2023-04-09T12:38:48.547Z,13.19
2023-04-09T12:39:50.822Z,13.47
2023-04-09T12:40:52.976Z,13.63
2023-04-09T12:41:55.754Z,13.39
2023-04-09T12:42:57.983Z,13.71
2023-04-09T12:44:00.369Z,14.30
2023-04-09T12:45:02.637Z,14.63
2023-04-09T12:46:05.223Z,14.50
2023-04-09T12:47:07.891Z,14.10
2023-04-09T12:48:10.102Z,13.94
2023-04-09T12:49:12.283Z,13.77
2023-04-09T12:50:16.210Z,14.37
2023-04-09T12:51:18.691Z,14.55
2023-04-09T12:52:22.445Z,14.75
2023-04-09T12:53:24.605Z,14.33
2023-04-09T12:54:26.807Z,14.36
2023-04-09T12:55:29.115Z,14.01
2023-04-09T12:56:31.270Z,14.08
2023-04-09T12:57:34.018Z,14.07
2023-04-09T12:58:36.158Z,14.19
2023-04-09T12:59:38.289Z,14.44
2023-04-09T13:00:40.639Z,14.81
2023-04-09T13:01:43.660Z,14.67
2023-04-09T13:02:46.475Z,14.10
2023-04-09T13:03:49.165Z,14.13
2023-04-09T13:04:52.858Z,14.02
2023-04-09T13:05:55.078Z,13.56
2023-04-09T13:06:57.378Z,13.87
2023-04-09T13:07:59.903Z,14.36
2023-04-09T13:09:02.630Z,14.49
2023-04-09T13:10:05.200Z,14.67
2023-04-09T13:11:07.535Z,14.42
2023-04-09T13:12:09.743Z,14.36
2023-04-09T13:13:12.165Z,14.30
2023-04-09T13:14:14.450Z,14.35
2023-04-09T13:15:16.714Z,14.28
2023-04-09T13:16:19.094Z,14.04
2023-04-09T13:17:21.786Z,14.13
2023-04-09T13:18:24.195Z,14.35
2023-04-09T13:19:26.389Z,13.98
2023-04-09T13:20:28.619Z,13.52
2023-04-09T13:21:30.974Z,13.30
2023-04-09T13:22:33.175Z,13.36
2023-04-09T13:23:35.361Z,13.63
2023-04-09T13:24:38.858Z,13.61
2023-04-09T13:25:41.089Z,13.73
2023-04-09T13:26:43.311Z,13.81
2023-04-09T13:27:45.652Z,14.11
2023-04-09T13:28:47.877Z,13.83
2023-04-09T13:29:50.292Z,13.64
2023-04-09T13:30:52.935Z,13.86
2023-04-09T13:31:58.338Z,14.06
2023-04-09T13:33:00.609Z,13.97
2023-04-09T13:34:02.973Z,14.15
2023-04-09T13:35:06.299Z,14.41
2023-04-09T13:36:08.506Z,14.84
2023-04-09T13:37:10.729Z,14.66
2023-04-09T13:38:12.955Z,14.70
2023-04-09T13:39:15.308Z,14.99
2023-04-09T13:40:17.740Z,14.64
2023-04-09T13:41:20.636Z,14.42
2023-04-09T13:42:23.001Z,14.34
2023-04-09T13:43:27.991Z,14.86
2023-04-09T13:44:30.255Z,15.26
2023-04-09T13:45:32.407Z,15.43
2023-04-09T13:46:34.648Z,15.46
2023-04-09T13:47:37.784Z,14.89
2023-04-09T13:48:40.140Z,15.05
2023-04-09T13:49:43.013Z,15.22
2023-04-09T13:50:45.848Z,14.76
2023-04-09T13:51:49.591Z,14.35
2023-04-09T13:52:51.952Z,14.17
2023-04-09T13:53:54.395Z,14.48
2023-04-09T13:54:56.592Z,14.52
2023-04-09T13:55:58.882Z,14.51
2023-04-09T13:57:01.479Z,14.73
2023-04-09T13:58:03.783Z,14.50
2023-04-09T13:59:06.451Z,14.46
2023-04-09T14:00:09.457Z,14.48
2023-04-09T14:01:11.954Z,14.47
2023-04-09T14:02:14.506Z,14.21
2023-04-09T14:03:17.026Z,14.86
2023-04-09T14:04:20.064Z,14.47
2023-04-09T14:05:22.397Z,14.12
2023-04-09T14:06:24.602Z,14.51
2023-04-09T14:07:26.846Z,14.43
2023-04-09T14:08:29.629Z,14.44
2023-04-09T14:09:31.989Z,14.57
2023-04-09T14:10:34.233Z,14.53